Tolaga — D5BW4 — position and weather

sailwx.info

Track history (hours):
 
Tides and Currents Weather Stations Pressure Air Temp Water Temp Dewpoint Dewpoint Depression Visibility Wind Speed Wind Dir Waves Ship Positions

Tolaga

Last reported at 2017-Oct-22 15:45 UTC. Time now 2017-Oct-22 22:48 UTC.
Position N 36°50' E 023°28'.

Length 122 m; draft 5.4 m.

Type: Cargo ship. MMSI: 636015618.

Date/timePositionNaut miles runAvg speedWind from/ knotsBaromVisibWave heightAir tempDewpointWater temp
2017-Oct-22 15:45N 36°50' E 023°28'313.5
2017-Oct-22 15:30N 36°53' E 023°30'713.6
2017-Oct-22 15:00N 36°59' E 023°32'714.1
2017-Oct-22 14:30N 37°06' E 023°34'714.4
2017-Oct-22 14:00N 37°13' E 023°36'714.2
2017-Oct-22 13:30N 37°20' E 023°38'714.4
2017-Oct-22 13:00N 37°27' E 023°40'714.4
2017-Oct-22 12:30N 37°34' E 023°42'714.4
2017-Oct-22 12:00N 37°41' E 023°42'714.9
2017-Oct-22 11:30N 37°48' E 023°38'714.5
2017-Oct-22 11:00N 37°55' E 023°37'2 4.4
2017-Oct-22 10:28N 37°57' E 023°35'0 0.0
2017-Oct-22 09:58N 37°57' E 023°35'0 0.0
2017-Oct-22 09:28N 37°57' E 023°35'0 0.0
2017-Oct-22 08:56N 37°57' E 023°35'0 0.0
2017-Oct-22 08:28N 37°57' E 023°35'0 0.0
2017-Oct-22 07:58N 37°57' E 023°35'0 0.0
2017-Oct-22 07:28N 37°57' E 023°35'0 0.0
2017-Oct-22 06:58N 37°57' E 023°35'0 0.1
2017-Oct-22 06:27N 37°57' E 023°35'0 0.0
2017-Oct-22 05:58N 37°57' E 023°35'0 0.0
2017-Oct-22 05:29N 37°57' E 023°35'0 0.0
2017-Oct-22 04:59N 37°57' E 023°35'0 0.0
2017-Oct-22 04:29N 37°57' E 023°35'0 0.0
2017-Oct-22 03:59N 37°57' E 023°35'0 0.0
2017-Oct-22 03:29N 37°57' E 023°35'0 0.0
2017-Oct-22 02:59N 37°57' E 023°35'0 0.0
2017-Oct-22 02:29N 37°57' E 023°35'0 0.0
2017-Oct-22 01:59N 37°57' E 023°35'0 0.0
2017-Oct-22 01:26N 37°57' E 023°35'0 0.1
2017-Oct-22 00:59N 37°57' E 023°35'0 0.0
2017-Oct-22 00:26N 37°57' E 023°35'0 0.0
2017-Oct-21 23:59N 37°57' E 023°35'0 0.0
2017-Oct-21 23:29N 37°57' E 023°35'0 0.0
2017-Oct-21 22:59N 37°57' E 023°35'0 0.0
2017-Oct-21 22:29N 37°57' E 023°35'0 0.0
2017-Oct-21 21:59N 37°57' E 023°35'0 0.0
2017-Oct-21 21:29N 37°57' E 023°35'0 0.0
2017-Oct-21 20:59N 37°57' E 023°35'0 0.0
2017-Oct-21 20:23N 37°57' E 023°35'0 0.0
2017-Oct-21 19:59N 37°57' E 023°35'0 0.0
2017-Oct-21 19:29N 37°57' E 023°35'0 0.0
2017-Oct-21 18:59N 37°57' E 023°35'0 0.0
2017-Oct-21 18:29N 37°57' E 023°35'0 0.0
2017-Oct-21 17:59N 37°57' E 023°35'0 0.0
2017-Oct-21 17:29N 37°57' E 023°35'0 0.0
2017-Oct-21 16:59N 37°57' E 023°35'0 0.2
2017-Oct-21 16:30N 37°57' E 023°35'2 4.6
2017-Oct-21 16:00N 37°55' E 023°36'1 2.2
2017-Oct-21 15:31N 37°54' E 023°36'713.8
2017-Oct-21 15:00N 37°48' E 023°41'815.3
2017-Oct-21 14:30N 37°41' E 023°45'1313.2
2017-Oct-21 13:31N 37°28' E 023°42'612.0
2017-Oct-21 13:00N 37°22' E 023°40'34210.2
2017-Oct-20 03:25N 40°51' E 017°50'186 7.3
2017-Oct-19 02:00N 43°00' E 014°52'1213.4
2017-Oct-19 01:07N 43°07' E 014°39'213.6
2017-Oct-19 01:00N 43°09' E 014°37'713.7
2017-Oct-19 00:31N 43°13' E 014°30'813.7
2017-Oct-18 23:54N 43°18' E 014°21'513.7
2017-Oct-18 23:30N 43°21' E 014°15'713.6
2017-Oct-18 22:59N 43°26' E 014°08'613.5
2017-Oct-18 22:30N 43°30' E 014°01'713.6
2017-Oct-18 21:58N 43°34' E 013°53'1013.7
2017-Oct-18 21:16N 43°39' E 013°42'413.1
2017-Oct-18 21:00N 43°40' E 013°37'611.3
2017-Oct-18 20:29N 43°38' E 013°30'0 0.8
2017-Oct-18 19:58N 43°37' E 013°30'0 0.0
2017-Oct-18 16:16N 43°37' E 013°30'0 0.0
2017-Oct-18 16:00N 43°37' E 013°30'0 0.0
2017-Oct-18 15:30N 43°37' E 013°30'0 0.0
2017-Oct-18 14:58N 43°37' E 013°30'0 0.0
2017-Oct-18 13:50N 43°37' E 013°30'0 0.0
2017-Oct-18 13:30N 43°37' E 013°30'0 0.0
2017-Oct-18 13:00N 43°37' E 013°30'1 1.5
2017-Oct-18 12:29N 43°38' E 013°29'2 3.9
2017-Oct-18 12:00N 43°39' E 013°31'612.3
2017-Oct-18 11:30N 43°42' E 013°39'510.6
2017-Oct-18 11:00N 43°41' E 013°46'611.9
2017-Oct-18 10:30N 43°38' E 013°52'611.9
2017-Oct-18 09:59N 43°34' E 013°59'612.1
2017-Oct-18 09:29N 43°30' E 014°06'612.4
2017-Oct-18 09:00N 43°27' E 014°13'712.8
2017-Oct-18 08:27N 43°23' E 014°21'512.6
2017-Oct-18 08:00N 43°20' E 014°27'712.6
2017-Oct-18 07:29N 43°16' E 014°34'712.6
2017-Oct-18 06:58N 43°12' E 014°41'19314.0
2017-Oct-17 17:09N 41°02' E 017°54'214.2
2017-Oct-17 16:59N 40°60' E 017°56'714.0
2017-Oct-17 16:29N 40°55' E 018°02'714.1
2017-Oct-17 16:00N 40°50' E 018°08'914.4
2017-Oct-17 15:25N 40°44' E 018°16'613.7
2017-Oct-17 15:00N 40°39' E 018°21'714.0
2017-Oct-17 14:30N 40°34' E 018°27'1414.1
2017-Oct-17 13:30N 40°23' E 018°38'4013.6
2017-Oct-17 10:34N 39°48' E 019°04'413.7
2017-Oct-17 10:17N 39°45' E 019°06'413.8
2017-Oct-17 10:00N 39°41' E 019°09'713.9
2017-Oct-17 09:30N 39°35' E 019°13'713.9
2017-Oct-17 09:00N 39°29' E 019°17'713.9
2017-Oct-17 08:31N 39°23' E 019°21'714.0
2017-Oct-17 08:01N 39°17' E 019°26'714.0
2017-Oct-17 07:31N 39°11' E 019°30'713.8
2017-Oct-17 07:01N 39°05' E 019°35'713.8
2017-Oct-17 06:31N 38°59' E 019°39'713.7
2017-Oct-17 06:01N 38°53' E 019°43'713.8
2017-Oct-17 05:30N 38°47' E 019°47'714.0
2017-Oct-17 05:01N 38°40' E 019°51'714.2
2017-Oct-17 04:30N 38°34' E 019°56'713.9
2017-Oct-17 04:00N 38°28' E 019°60'1813.7
2017-Oct-17 02:43N 38°13' E 020°11'313.8
2017-Oct-17 02:30N 38°10' E 020°13'713.8
2017-Oct-17 02:00N 38°04' E 020°17'713.8
2017-Oct-17 01:30N 37°59' E 020°22'713.7
2017-Oct-17 01:00N 37°53' E 020°27'713.9
2017-Oct-17 00:30N 37°48' E 020°33'714.1
2017-Oct-17 00:01N 37°42' E 020°38'714.1
2017-Oct-16 23:31N 37°37' E 020°44'140 8.8
2017-Oct-16 07:32N 37°26' E 023°40'115.2
2017-Oct-16 07:30N 37°27' E 023°40'815.1
2017-Oct-16 07:01N 37°34' E 023°41'815.1
2017-Oct-16 06:30N 37°42' E 023°41'815.2
2017-Oct-16 06:01N 37°49' E 023°37'713.6
2017-Oct-16 05:30N 37°55' E 023°36'2 3.5
2017-Oct-16 05:00N 37°57' E 023°36'0 0.0
2017-Oct-16 04:30N 37°57' E 023°36'0 0.0
2017-Oct-16 04:00N 37°57' E 023°36'0 0.0
2017-Oct-16 03:30N 37°57' E 023°36'0 0.0
2017-Oct-16 03:00N 37°57' E 023°36'0 0.0
2017-Oct-16 02:30N 37°57' E 023°36'0 0.0
2017-Oct-16 02:00N 37°57' E 023°36'0 0.0
2017-Oct-16 01:30N 37°57' E 023°36'0 0.0
2017-Oct-16 01:00N 37°57' E 023°36'0 0.0
2017-Oct-16 00:30N 37°57' E 023°36'0 0.0
2017-Oct-16 00:00N 37°57' E 023°36'0 0.0
2017-Oct-15 23:30N 37°57' E 023°36'0 0.0
2017-Oct-15 23:00N 37°57' E 023°36'0 0.0
2017-Oct-15 22:30N 37°57' E 023°36'0 0.0
2017-Oct-15 22:00N 37°57' E 023°36'0 0.0
2017-Oct-15 21:30N 37°57' E 023°36'0 0.0
2017-Oct-15 21:00N 37°57' E 023°36'0 0.0
2017-Oct-15 20:30N 37°57' E 023°36'0 0.0
2017-Oct-15 20:00N 37°57' E 023°36'0 0.0
2017-Oct-15 19:30N 37°57' E 023°36'0 0.0
2017-Oct-15 19:00N 37°57' E 023°36'0 0.0
2017-Oct-15 18:30N 37°57' E 023°36'0 0.0
2017-Oct-15 18:00N 37°57' E 023°36'0 0.0
2017-Oct-15 17:30N 37°57' E 023°36'0 0.0
2017-Oct-15 17:00N 37°57' E 023°36'0 0.0
2017-Oct-15 16:30N 37°57' E 023°36'0 0.0
2017-Oct-15 16:00N 37°57' E 023°36'0 0.0
2017-Oct-15 15:30N 37°57' E 023°36'0 0.0
2017-Oct-15 15:00N 37°57' E 023°36'0 0.0
2017-Oct-15 14:00N 37°57' E 023°36'0 0.0
2017-Oct-15 13:30N 37°57' E 023°36'0 0.0
2017-Oct-15 13:00N 37°57' E 023°36'0 0.0
2017-Oct-15 12:30N 37°57' E 023°36'0 0.0
2017-Oct-15 12:00N 37°57' E 023°36'1 1.2
2017-Oct-15 11:30N 37°57' E 023°36'2 4.3
2017-Oct-15 11:00N 37°54' E 023°36'510.5
2017-Oct-15 10:30N 37°50' E 023°40'611.6
2017-Oct-15 10:00N 37°45' E 023°43'611.1
2017-Oct-15 09:30N 37°39' E 023°45'510.4
2017-Oct-15 09:00N 37°34' E 023°43'610.7
2017-Oct-15 08:28N 37°29' E 023°42'283 9.1
2017-Oct-14 01:18N 40°13' E 018°46'  
Track history (hours):
 
Tides and Currents Weather Stations Pressure Air Temp Water Temp Dewpoint Dewpoint Depression Visibility Wind Speed Wind Dir Waves Ship Positions

Tolaga

Last reported at 2017-Oct-22 15:45 UTC. Time now 2017-Oct-22 22:48 UTC.
Position N 36°50' E 023°28'.

Length 122 m; draft 5.4 m.

Type: Cargo ship. MMSI: 636015618.

Date/timePositionNaut miles runAvg speedWind from/ knotsBaromVisibWave heightAir tempDewpointWater temp
2017-Oct-22 15:45N 36°50' E 023°28'313.5
2017-Oct-22 15:30N 36°53' E 023°30'713.6
2017-Oct-22 15:00N 36°59' E 023°32'714.1
2017-Oct-22 14:30N 37°06' E 023°34'714.4
2017-Oct-22 14:00N 37°13' E 023°36'714.2
2017-Oct-22 13:30N 37°20' E 023°38'714.4
2017-Oct-22 13:00N 37°27' E 023°40'714.4
2017-Oct-22 12:30N 37°34' E 023°42'714.4
2017-Oct-22 12:00N 37°41' E 023°42'714.9
2017-Oct-22 11:30N 37°48' E 023°38'714.5
2017-Oct-22 11:00N 37°55' E 023°37'2 4.4
2017-Oct-22 10:28N 37°57' E 023°35'0 0.0
2017-Oct-22 09:58N 37°57' E 023°35'0 0.0
2017-Oct-22 09:28N 37°57' E 023°35'0 0.0
2017-Oct-22 08:56N 37°57' E 023°35'0 0.0
2017-Oct-22 08:28N 37°57' E 023°35'0 0.0
2017-Oct-22 07:58N 37°57' E 023°35'0 0.0
2017-Oct-22 07:28N 37°57' E 023°35'0 0.0
2017-Oct-22 06:58N 37°57' E 023°35'0 0.1
2017-Oct-22 06:27N 37°57' E 023°35'0 0.0
2017-Oct-22 05:58N 37°57' E 023°35'0 0.0
2017-Oct-22 05:29N 37°57' E 023°35'0 0.0
2017-Oct-22 04:59N 37°57' E 023°35'0 0.0
2017-Oct-22 04:29N 37°57' E 023°35'0 0.0
2017-Oct-22 03:59N 37°57' E 023°35'0 0.0
2017-Oct-22 03:29N 37°57' E 023°35'0 0.0
2017-Oct-22 02:59N 37°57' E 023°35'0 0.0
2017-Oct-22 02:29N 37°57' E 023°35'0 0.0
2017-Oct-22 01:59N 37°57' E 023°35'0 0.0
2017-Oct-22 01:26N 37°57' E 023°35'0 0.1
2017-Oct-22 00:59N 37°57' E 023°35'0 0.0
2017-Oct-22 00:26N 37°57' E 023°35'0 0.0
2017-Oct-21 23:59N 37°57' E 023°35'0 0.0
2017-Oct-21 23:29N 37°57' E 023°35'0 0.0
2017-Oct-21 22:59N 37°57' E 023°35'0 0.0
2017-Oct-21 22:29N 37°57' E 023°35'0 0.0
2017-Oct-21 21:59N 37°57' E 023°35'0 0.0
2017-Oct-21 21:29N 37°57' E 023°35'0 0.0
2017-Oct-21 20:59N 37°57' E 023°35'0 0.0
2017-Oct-21 20:23N 37°57' E 023°35'0 0.0
2017-Oct-21 19:59N 37°57' E 023°35'0 0.0
2017-Oct-21 19:29N 37°57' E 023°35'0 0.0
2017-Oct-21 18:59N 37°57' E 023°35'0 0.0
2017-Oct-21 18:29N 37°57' E 023°35'0 0.0
2017-Oct-21 17:59N 37°57' E 023°35'0 0.0
2017-Oct-21 17:29N 37°57' E 023°35'0 0.0
2017-Oct-21 16:59N 37°57' E 023°35'0 0.2
2017-Oct-21 16:30N 37°57' E 023°35'2 4.6
2017-Oct-21 16:00N 37°55' E 023°36'1 2.2
2017-Oct-21 15:31N 37°54' E 023°36'713.8
2017-Oct-21 15:00N 37°48' E 023°41'815.3
2017-Oct-21 14:30N 37°41' E 023°45'1313.2
2017-Oct-21 13:31N 37°28' E 023°42'612.0
2017-Oct-21 13:00N 37°22' E 023°40'34210.2
2017-Oct-20 03:25N 40°51' E 017°50'186 7.3
2017-Oct-19 02:00N 43°00' E 014°52'1213.4
2017-Oct-19 01:07N 43°07' E 014°39'213.6
2017-Oct-19 01:00N 43°09' E 014°37'713.7
2017-Oct-19 00:31N 43°13' E 014°30'813.7
2017-Oct-18 23:54N 43°18' E 014°21'513.7
2017-Oct-18 23:30N 43°21' E 014°15'713.6
2017-Oct-18 22:59N 43°26' E 014°08'613.5
2017-Oct-18 22:30N 43°30' E 014°01'713.6
2017-Oct-18 21:58N 43°34' E 013°53'1013.7
2017-Oct-18 21:16N 43°39' E 013°42'413.1
2017-Oct-18 21:00N 43°40' E 013°37'611.3
2017-Oct-18 20:29N 43°38' E 013°30'0 0.8
2017-Oct-18 19:58N 43°37' E 013°30'0 0.0
2017-Oct-18 16:16N 43°37' E 013°30'0 0.0
2017-Oct-18 16:00N 43°37' E 013°30'0 0.0
2017-Oct-18 15:30N 43°37' E 013°30'0 0.0
2017-Oct-18 14:58N 43°37' E 013°30'0 0.0
2017-Oct-18 13:50N 43°37' E 013°30'0 0.0
2017-Oct-18 13:30N 43°37' E 013°30'0 0.0
2017-Oct-18 13:00N 43°37' E 013°30'1 1.5
2017-Oct-18 12:29N 43°38' E 013°29'2 3.9
2017-Oct-18 12:00N 43°39' E 013°31'612.3
2017-Oct-18 11:30N 43°42' E 013°39'510.6
2017-Oct-18 11:00N 43°41' E 013°46'611.9
2017-Oct-18 10:30N 43°38' E 013°52'611.9
2017-Oct-18 09:59N 43°34' E 013°59'612.1
2017-Oct-18 09:29N 43°30' E 014°06'612.4
2017-Oct-18 09:00N 43°27' E 014°13'712.8
2017-Oct-18 08:27N 43°23' E 014°21'512.6
2017-Oct-18 08:00N 43°20' E 014°27'712.6
2017-Oct-18 07:29N 43°16' E 014°34'712.6
2017-Oct-18 06:58N 43°12' E 014°41'19314.0
2017-Oct-17 17:09N 41°02' E 017°54'214.2
2017-Oct-17 16:59N 40°60' E 017°56'714.0
2017-Oct-17 16:29N 40°55' E 018°02'714.1
2017-Oct-17 16:00N 40°50' E 018°08'914.4
2017-Oct-17 15:25N 40°44' E 018°16'613.7
2017-Oct-17 15:00N 40°39' E 018°21'714.0
2017-Oct-17 14:30N 40°34' E 018°27'1414.1
2017-Oct-17 13:30N 40°23' E 018°38'4013.6
2017-Oct-17 10:34N 39°48' E 019°04'413.7
2017-Oct-17 10:17N 39°45' E 019°06'413.8
2017-Oct-17 10:00N 39°41' E 019°09'713.9
2017-Oct-17 09:30N 39°35' E 019°13'713.9
2017-Oct-17 09:00N 39°29' E 019°17'713.9
2017-Oct-17 08:31N 39°23' E 019°21'714.0
2017-Oct-17 08:01N 39°17' E 019°26'714.0
2017-Oct-17 07:31N 39°11' E 019°30'713.8
2017-Oct-17 07:01N 39°05' E 019°35'713.8
2017-Oct-17 06:31N 38°59' E 019°39'713.7
2017-Oct-17 06:01N 38°53' E 019°43'713.8
2017-Oct-17 05:30N 38°47' E 019°47'714.0
2017-Oct-17 05:01N 38°40' E 019°51'714.2
2017-Oct-17 04:30N 38°34' E 019°56'713.9
2017-Oct-17 04:00N 38°28' E 019°60'1813.7
2017-Oct-17 02:43N 38°13' E 020°11'313.8
2017-Oct-17 02:30N 38°10' E 020°13'713.8
2017-Oct-17 02:00N 38°04' E 020°17'713.8
2017-Oct-17 01:30N 37°59' E 020°22'713.7
2017-Oct-17 01:00N 37°53' E 020°27'713.9
2017-Oct-17 00:30N 37°48' E 020°33'714.1
2017-Oct-17 00:01N 37°42' E 020°38'714.1
2017-Oct-16 23:31N 37°37' E 020°44'140 8.8
2017-Oct-16 07:32N 37°26' E 023°40'115.2
2017-Oct-16 07:30N 37°27' E 023°40'815.1
2017-Oct-16 07:01N 37°34' E 023°41'815.1
2017-Oct-16 06:30N 37°42' E 023°41'815.2
2017-Oct-16 06:01N 37°49' E 023°37'713.6
2017-Oct-16 05:30N 37°55' E 023°36'2 3.5
2017-Oct-16 05:00N 37°57' E 023°36'0 0.0
2017-Oct-16 04:30N 37°57' E 023°36'0 0.0
2017-Oct-16 04:00N 37°57' E 023°36'0 0.0
2017-Oct-16 03:30N 37°57' E 023°36'0 0.0
2017-Oct-16 03:00N 37°57' E 023°36'0 0.0
2017-Oct-16 02:30N 37°57' E 023°36'0 0.0
2017-Oct-16 02:00N 37°57' E 023°36'0 0.0
2017-Oct-16 01:30N 37°57' E 023°36'0 0.0
2017-Oct-16 01:00N 37°57' E 023°36'0 0.0
2017-Oct-16 00:30N 37°57' E 023°36'0 0.0
2017-Oct-16 00:00N 37°57' E 023°36'0 0.0
2017-Oct-15 23:30N 37°57' E 023°36'0 0.0
2017-Oct-15 23:00N 37°57' E 023°36'0 0.0
2017-Oct-15 22:30N 37°57' E 023°36'0 0.0
2017-Oct-15 22:00N 37°57' E 023°36'0 0.0
2017-Oct-15 21:30N 37°57' E 023°36'0 0.0
2017-Oct-15 21:00N 37°57' E 023°36'0 0.0
2017-Oct-15 20:30N 37°57' E 023°36'0 0.0
2017-Oct-15 20:00N 37°57' E 023°36'0 0.0
2017-Oct-15 19:30N 37°57' E 023°36'0 0.0
2017-Oct-15 19:00N 37°57' E 023°36'0 0.0
2017-Oct-15 18:30N 37°57' E 023°36'0 0.0
2017-Oct-15 18:00N 37°57' E 023°36'0 0.0
2017-Oct-15 17:30N 37°57' E 023°36'0 0.0
2017-Oct-15 17:00N 37°57' E 023°36'0 0.0
2017-Oct-15 16:30N 37°57' E 023°36'0 0.0
2017-Oct-15 16:00N 37°57' E 023°36'0 0.0
2017-Oct-15 15:30N 37°57' E 023°36'0 0.0
2017-Oct-15 15:00N 37°57' E 023°36'0 0.0
2017-Oct-15 14:00N 37°57' E 023°36'0 0.0
2017-Oct-15 13:30N 37°57' E 023°36'0 0.0
2017-Oct-15 13:00N 37°57' E 023°36'0 0.0
2017-Oct-15 12:30N 37°57' E 023°36'0 0.0
2017-Oct-15 12:00N 37°57' E 023°36'1 1.2
2017-Oct-15 11:30N 37°57' E 023°36'2 4.3
2017-Oct-15 11:00N 37°54' E 023°36'510.5
2017-Oct-15 10:30N 37°50' E 023°40'611.6
2017-Oct-15 10:00N 37°45' E 023°43'611.1
2017-Oct-15 09:30N 37°39' E 023°45'510.4
2017-Oct-15 09:00N 37°34' E 023°43'610.7
2017-Oct-15 08:28N 37°29' E 023°42'283 9.1
2017-Oct-14 01:18N 40°13' E 018°46'  

Dump ship's entire track history